sensor_id;sensor_type;location;lat;lon;timestamp;P1;durP1;ratioP1;P2;durP2;ratioP2
43823;SDS011;29470;53.550;9.926;2023-03-23T00:01:23;13.40;;;6.45;;
43823;SDS011;29470;53.550;9.926;2023-03-23T00:06:27;12.38;;;7.22;;
43823;SDS011;29470;53.550;9.926;2023-03-23T00:11:34;13.40;;;7.50;;
43823;SDS011;29470;53.550;9.926;2023-03-23T00:16:36;15.60;;;8.55;;
43823;SDS011;29470;53.550;9.926;2023-03-23T00:21:40;15.10;;;8.55;;
43823;SDS011;29470;53.550;9.926;2023-03-23T00:26:45;16.17;;;9.32;;
43823;SDS011;29470;53.550;9.926;2023-03-23T00:31:48;16.52;;;9.82;;
43823;SDS011;29470;53.550;9.926;2023-03-23T00:36:51;16.30;;;10.35;;
43823;SDS011;29470;53.550;9.926;2023-03-23T00:41:58;16.92;;;10.80;;
43823;SDS011;29470;53.550;9.926;2023-03-23T00:47:02;18.42;;;11.77;;
43823;SDS011;29470;53.550;9.926;2023-03-23T00:52:05;16.80;;;10.32;;
43823;SDS011;29470;53.550;9.926;2023-03-23T00:57:09;16.13;;;10.85;;
43823;SDS011;29470;53.550;9.926;2023-03-23T01:02:10;15.13;;;10.15;;
43823;SDS011;29470;53.550;9.926;2023-03-23T01:07:12;15.50;;;10.13;;
43823;SDS011;29470;53.550;9.926;2023-03-23T01:12:15;15.98;;;9.73;;
43823;SDS011;29470;53.550;9.926;2023-03-23T01:17:17;17.20;;;11.07;;
43823;SDS011;29470;53.550;9.926;2023-03-23T01:22:21;13.93;;;9.48;;
43823;SDS011;29470;53.550;9.926;2023-03-23T01:27:24;17.15;;;11.10;;
43823;SDS011;29470;53.550;9.926;2023-03-23T01:32:26;20.23;;;12.43;;
43823;SDS011;29470;53.550;9.926;2023-03-23T01:37:28;18.05;;;11.45;;
43823;SDS011;29470;53.550;9.926;2023-03-23T01:42:33;22.05;;;11.77;;
43823;SDS011;29470;53.550;9.926;2023-03-23T01:47:38;18.38;;;11.43;;
43823;SDS011;29470;53.550;9.926;2023-03-23T01:52:40;20.33;;;12.32;;
43823;SDS011;29470;53.550;9.926;2023-03-23T01:57:43;17.83;;;11.38;;
43823;SDS011;29470;53.550;9.926;2023-03-23T02:02:48;19.77;;;11.48;;
43823;SDS011;29470;53.550;9.926;2023-03-23T02:07:53;18.23;;;11.00;;
43823;SDS011;29470;53.550;9.926;2023-03-23T02:12:57;16.38;;;11.00;;
43823;SDS011;29470;53.550;9.926;2023-03-23T02:18:01;16.98;;;10.35;;
43823;SDS011;29470;53.550;9.926;2023-03-23T02:23:27;15.57;;;9.80;;
43823;SDS011;29470;53.550;9.926;2023-03-23T02:29:03;15.95;;;10.60;;
43823;SDS011;29470;53.550;9.926;2023-03-23T02:34:17;15.05;;;10.05;;
43823;SDS011;29470;53.550;9.926;2023-03-23T02:39:22;17.60;;;10.20;;
43823;SDS011;29470;53.550;9.926;2023-03-23T02:44:27;16.38;;;9.77;;
43823;SDS011;29470;53.550;9.926;2023-03-23T02:49:34;15.07;;;9.88;;
43823;SDS011;29470;53.550;9.926;2023-03-23T02:54:39;17.00;;;9.95;;
43823;SDS011;29470;53.550;9.926;2023-03-23T02:59:43;16.77;;;9.93;;
43823;SDS011;29470;53.550;9.926;2023-03-23T03:04:48;13.82;;;9.82;;
43823;SDS011;29470;53.550;9.926;2023-03-23T03:09:58;14.95;;;10.23;;
43823;SDS011;29470;53.550;9.926;2023-03-23T03:15:06;16.15;;;9.93;;
43823;SDS011;29470;53.550;9.926;2023-03-23T03:20:15;16.13;;;10.68;;
43823;SDS011;29470;53.550;9.926;2023-03-23T03:25:19;15.63;;;10.50;;
43823;SDS011;29470;53.550;9.926;2023-03-23T03:30:25;15.65;;;9.80;;
43823;SDS011;29470;53.550;9.926;2023-03-23T03:35:34;18.67;;;11.27;;
43823;SDS011;29470;53.550;9.926;2023-03-23T03:40:39;15.27;;;10.85;;
43823;SDS011;29470;53.550;9.926;2023-03-23T03:45:41;13.90;;;10.18;;
43823;SDS011;29470;53.550;9.926;2023-03-23T03:50:46;14.80;;;9.88;;
43823;SDS011;29470;53.550;9.926;2023-03-23T03:55:48;15.45;;;10.38;;
43823;SDS011;29470;53.550;9.926;2023-03-23T04:00:51;17.95;;;10.48;;
43823;SDS011;29470;53.550;9.926;2023-03-23T04:06:00;17.15;;;10.70;;
43823;SDS011;29470;53.550;9.926;2023-03-23T04:11:02;15.30;;;9.40;;
43823;SDS011;29470;53.550;9.926;2023-03-23T04:16:06;15.13;;;9.60;;
43823;SDS011;29470;53.550;9.926;2023-03-23T04:21:10;17.10;;;10.52;;
43823;SDS011;29470;53.550;9.926;2023-03-23T04:26:12;19.38;;;10.73;;
43823;SDS011;29470;53.550;9.926;2023-03-23T04:31:21;15.43;;;9.77;;
43823;SDS011;29470;53.550;9.926;2023-03-23T04:36:29;15.02;;;10.02;;
43823;SDS011;29470;53.550;9.926;2023-03-23T04:41:41;17.50;;;10.40;;
43823;SDS011;29470;53.550;9.926;2023-03-23T04:47:13;15.93;;;10.70;;
43823;SDS011;29470;53.550;9.926;2023-03-23T04:52:26;13.88;;;10.15;;
43823;SDS011;29470;53.550;9.926;2023-03-23T04:57:31;14.88;;;10.57;;
43823;SDS011;29470;53.550;9.926;2023-03-23T05:02:53;14.95;;;9.90;;
43823;SDS011;29470;53.550;9.926;2023-03-23T05:07:59;17.65;;;11.00;;
43823;SDS011;29470;53.550;9.926;2023-03-23T05:13:04;15.90;;;10.60;;
43823;SDS011;29470;53.550;9.926;2023-03-23T05:18:06;15.20;;;10.23;;
43823;SDS011;29470;53.550;9.926;2023-03-23T05:23:12;15.05;;;10.15;;
43823;SDS011;29470;53.550;9.926;2023-03-23T05:28:14;15.15;;;9.93;;
43823;SDS011;29470;53.550;9.926;2023-03-23T05:33:16;15.80;;;9.75;;
43823;SDS011;29470;53.550;9.926;2023-03-23T05:38:40;13.77;;;8.63;;
43823;SDS011;29470;53.550;9.926;2023-03-23T05:43:45;12.55;;;8.55;;
43823;SDS011;29470;53.550;9.926;2023-03-23T05:48:58;15.15;;;8.90;;
43823;SDS011;29470;53.550;9.926;2023-03-23T05:54:07;12.20;;;8.13;;
43823;SDS011;29470;53.550;9.926;2023-03-23T05:59:11;13.65;;;8.05;;
43823;SDS011;29470;53.550;9.926;2023-03-23T06:04:16;11.23;;;7.45;;
43823;SDS011;29470;53.550;9.926;2023-03-23T06:09:34;13.77;;;7.35;;
43823;SDS011;29470;53.550;9.926;2023-03-23T06:14:39;14.18;;;7.25;;
43823;SDS011;29470;53.550;9.926;2023-03-23T06:19:44;12.15;;;6.80;;
43823;SDS011;29470;53.550;9.926;2023-03-23T06:24:51;12.05;;;7.05;;
43823;SDS011;29470;53.550;9.926;2023-03-23T06:30:00;10.18;;;6.00;;
43823;SDS011;29470;53.550;9.926;2023-03-23T06:35:03;8.52;;;5.35;;
43823;SDS011;29470;53.550;9.926;2023-03-23T06:40:10;9.40;;;5.38;;
43823;SDS011;29470;53.550;9.926;2023-03-23T06:45:14;7.55;;;4.50;;
43823;SDS011;29470;53.550;9.926;2023-03-23T06:50:18;12.52;;;6.53;;
43823;SDS011;29470;53.550;9.926;2023-03-23T06:55:22;7.68;;;4.85;;
43823;SDS011;29470;53.550;9.926;2023-03-23T07:00:24;7.65;;;4.22;;
43823;SDS011;29470;53.550;9.926;2023-03-23T07:05:26;6.82;;;4.38;;
43823;SDS011;29470;53.550;9.926;2023-03-23T07:10:30;8.40;;;3.72;;
43823;SDS011;29470;53.550;9.926;2023-03-23T07:15:34;5.43;;;3.67;;
43823;SDS011;29470;53.550;9.926;2023-03-23T07:20:36;6.53;;;3.28;;
43823;SDS011;29470;53.550;9.926;2023-03-23T07:25:39;5.97;;;3.22;;
43823;SDS011;29470;53.550;9.926;2023-03-23T07:30:44;5.65;;;3.33;;
43823;SDS011;29470;53.550;9.926;2023-03-23T07:35:46;4.50;;;3.22;;
43823;SDS011;29470;53.550;9.926;2023-03-23T07:40:52;5.10;;;3.10;;
43823;SDS011;29470;53.550;9.926;2023-03-23T07:45:55;6.65;;;3.50;;
43823;SDS011;29470;53.550;9.926;2023-03-23T07:51:02;5.65;;;3.20;;
43823;SDS011;29470;53.550;9.926;2023-03-23T07:56:06;6.38;;;3.92;;
43823;SDS011;29470;53.550;9.926;2023-03-23T08:01:48;6.55;;;3.95;;
43823;SDS011;29470;53.550;9.926;2023-03-23T08:07:08;7.63;;;4.53;;
43823;SDS011;29470;53.550;9.926;2023-03-23T08:12:32;7.43;;;5.28;;
43823;SDS011;29470;53.550;9.926;2023-03-23T08:17:37;6.65;;;4.78;;
43823;SDS011;29470;53.550;9.926;2023-03-23T08:23:05;8.57;;;5.07;;
43823;SDS011;29470;53.550;9.926;2023-03-23T08:28:39;8.65;;;5.20;;
43823;SDS011;29470;53.550;9.926;2023-03-23T08:34:03;7.18;;;4.15;;
43823;SDS011;29470;53.550;9.926;2023-03-23T08:39:37;4.78;;;2.67;;
43823;SDS011;29470;53.550;9.926;2023-03-23T08:44:58;4.18;;;2.40;;
43823;SDS011;29470;53.550;9.926;2023-03-23T08:50:24;4.20;;;1.65;;
43823;SDS011;29470;53.550;9.926;2023-03-23T08:55:40;5.88;;;2.20;;
43823;SDS011;29470;53.550;9.926;2023-03-23T09:00:47;5.22;;;2.47;;
43823;SDS011;29470;53.550;9.926;2023-03-23T09:06:12;6.07;;;2.65;;
43823;SDS011;29470;53.550;9.926;2023-03-23T09:11:19;7.20;;;2.45;;
43823;SDS011;29470;53.550;9.926;2023-03-23T09:16:22;7.03;;;1.88;;
43823;SDS011;29470;53.550;9.926;2023-03-23T09:21:24;6.28;;;1.80;;
43823;SDS011;29470;53.550;9.926;2023-03-23T09:26:26;5.70;;;1.80;;
43823;SDS011;29470;53.550;9.926;2023-03-23T09:31:29;6.90;;;1.50;;
43823;SDS011;29470;53.550;9.926;2023-03-23T09:36:31;6.32;;;1.80;;
43823;SDS011;29470;53.550;9.926;2023-03-23T09:41:36;7.40;;;1.70;;
43823;SDS011;29470;53.550;9.926;2023-03-23T09:46:57;5.97;;;1.55;;
43823;SDS011;29470;53.550;9.926;2023-03-23T09:52:07;8.88;;;2.00;;
43823;SDS011;29470;53.550;9.926;2023-03-23T09:57:14;11.90;;;2.67;;
43823;SDS011;29470;53.550;9.926;2023-03-23T10:02:30;8.82;;;2.67;;
43823;SDS011;29470;53.550;9.926;2023-03-23T10:07:38;6.38;;;1.85;;
43823;SDS011;29470;53.550;9.926;2023-03-23T10:12:41;9.82;;;1.63;;
43823;SDS011;29470;53.550;9.926;2023-03-23T10:17:50;13.03;;;1.83;;
43823;SDS011;29470;53.550;9.926;2023-03-23T10:22:57;7.20;;;2.27;;
43823;SDS011;29470;53.550;9.926;2023-03-23T10:28:05;8.32;;;1.63;;
43823;SDS011;29470;53.550;9.926;2023-03-23T10:33:15;10.32;;;1.92;;
43823;SDS011;29470;53.550;9.926;2023-03-23T10:38:22;9.43;;;2.22;;
43823;SDS011;29470;53.550;9.926;2023-03-23T10:43:26;9.90;;;1.77;;
43823;SDS011;29470;53.550;9.926;2023-03-23T10:48:30;5.82;;;1.73;;
43823;SDS011;29470;53.550;9.926;2023-03-23T10:53:36;8.68;;;2.15;;
43823;SDS011;29470;53.550;9.926;2023-03-23T10:58:39;7.45;;;1.90;;
43823;SDS011;29470;53.550;9.926;2023-03-23T11:03:43;10.68;;;2.42;;
43823;SDS011;29470;53.550;9.926;2023-03-23T11:08:49;8.85;;;1.90;;
43823;SDS011;29470;53.550;9.926;2023-03-23T11:13:59;8.95;;;1.90;;
43823;SDS011;29470;53.550;9.926;2023-03-23T11:19:12;13.55;;;2.30;;
43823;SDS011;29470;53.550;9.926;2023-03-23T11:24:15;8.23;;;2.10;;
43823;SDS011;29470;53.550;9.926;2023-03-23T11:29:23;9.05;;;2.40;;
43823;SDS011;29470;53.550;9.926;2023-03-23T11:34:29;10.95;;;3.28;;
43823;SDS011;29470;53.550;9.926;2023-03-23T11:39:34;12.13;;;2.50;;
43823;SDS011;29470;53.550;9.926;2023-03-23T11:44:48;10.10;;;2.80;;
43823;SDS011;29470;53.550;9.926;2023-03-23T11:49:52;10.65;;;2.70;;
43823;SDS011;29470;53.550;9.926;2023-03-23T11:55:03;9.95;;;2.90;;
43823;SDS011;29470;53.550;9.926;2023-03-23T12:00:12;8.32;;;2.40;;
43823;SDS011;29470;53.550;9.926;2023-03-23T12:10:47;10.30;;;2.90;;
43823;SDS011;29470;53.550;9.926;2023-03-23T12:15:58;12.38;;;3.40;;
43823;SDS011;29470;53.550;9.926;2023-03-23T12:21:21;6.70;;;3.05;;
43823;SDS011;29470;53.550;9.926;2023-03-23T12:26:28;8.85;;;3.20;;
43823;SDS011;29470;53.550;9.926;2023-03-23T12:31:34;7.93;;;3.30;;
43823;SDS011;29470;53.550;9.926;2023-03-23T12:36:47;10.43;;;3.40;;
43823;SDS011;29470;53.550;9.926;2023-03-23T12:42:01;11.10;;;3.90;;
43823;SDS011;29470;53.550;9.926;2023-03-23T12:47:15;12.00;;;3.53;;
43823;SDS011;29470;53.550;9.926;2023-03-23T12:52:28;10.43;;;3.70;;
43823;SDS011;29470;53.550;9.926;2023-03-23T12:57:34;8.63;;;3.47;;
43823;SDS011;29470;53.550;9.926;2023-03-23T13:02:41;8.05;;;3.20;;
43823;SDS011;29470;53.550;9.926;2023-03-23T13:07:52;9.23;;;3.15;;
43823;SDS011;29470;53.550;9.926;2023-03-23T13:13:00;10.80;;;3.88;;
43823;SDS011;29470;53.550;9.926;2023-03-23T13:18:05;8.30;;;2.90;;
43823;SDS011;29470;53.550;9.926;2023-03-23T13:23:15;9.48;;;3.28;;
43823;SDS011;29470;53.550;9.926;2023-03-23T13:28:21;8.18;;;2.80;;
43823;SDS011;29470;53.550;9.926;2023-03-23T13:33:28;10.23;;;3.22;;
43823;SDS011;29470;53.550;9.926;2023-03-23T13:38:33;11.10;;;4.13;;
43823;SDS011;29470;53.550;9.926;2023-03-23T13:43:37;6.03;;;2.40;;
43823;SDS011;29470;53.550;9.926;2023-03-23T13:48:41;9.18;;;3.03;;
43823;SDS011;29470;53.550;9.926;2023-03-23T13:53:48;6.05;;;2.45;;
43823;SDS011;29470;53.550;9.926;2023-03-23T13:58:52;6.80;;;2.67;;
43823;SDS011;29470;53.550;9.926;2023-03-23T14:04:07;3.63;;;2.00;;
43823;SDS011;29470;53.550;9.926;2023-03-23T14:09:15;4.05;;;1.60;;
43823;SDS011;29470;53.550;9.926;2023-03-23T14:14:20;5.03;;;1.67;;
43823;SDS011;29470;53.550;9.926;2023-03-23T14:19:28;3.47;;;1.80;;
43823;SDS011;29470;53.550;9.926;2023-03-23T14:24:32;8.18;;;3.17;;
43823;SDS011;29470;53.550;9.926;2023-03-23T14:29:40;6.95;;;2.55;;
43823;SDS011;29470;53.550;9.926;2023-03-23T14:34:42;5.18;;;1.50;;
43823;SDS011;29470;53.550;9.926;2023-03-23T14:39:49;6.00;;;1.63;;
43823;SDS011;29470;53.550;9.926;2023-03-23T14:44:53;6.15;;;2.08;;
43823;SDS011;29470;53.550;9.926;2023-03-23T14:49:55;4.85;;;1.45;;
43823;SDS011;29470;53.550;9.926;2023-03-23T14:55:10;6.47;;;1.98;;
43823;SDS011;29470;53.550;9.926;2023-03-23T15:00:14;4.63;;;1.50;;
43823;SDS011;29470;53.550;9.926;2023-03-23T15:05:19;3.78;;;1.75;;
43823;SDS011;29470;53.550;9.926;2023-03-23T15:10:25;3.95;;;1.30;;
43823;SDS011;29470;53.550;9.926;2023-03-23T15:15:27;4.50;;;1.65;;
43823;SDS011;29470;53.550;9.926;2023-03-23T15:20:46;5.75;;;2.17;;
43823;SDS011;29470;53.550;9.926;2023-03-23T15:25:51;5.53;;;2.00;;
43823;SDS011;29470;53.550;9.926;2023-03-23T15:30:55;5.07;;;1.60;;
43823;SDS011;29470;53.550;9.926;2023-03-23T15:35:58;4.68;;;1.77;;
43823;SDS011;29470;53.550;9.926;2023-03-23T15:41:02;5.80;;;1.95;;
43823;SDS011;29470;53.550;9.926;2023-03-23T15:46:19;10.07;;;2.58;;
43823;SDS011;29470;53.550;9.926;2023-03-23T15:51:23;5.88;;;2.00;;
43823;SDS011;29470;53.550;9.926;2023-03-23T15:56:30;5.88;;;1.70;;
43823;SDS011;29470;53.550;9.926;2023-03-23T16:01:32;8.40;;;1.90;;
43823;SDS011;29470;53.550;9.926;2023-03-23T16:06:35;14.82;;;3.58;;
43823;SDS011;29470;53.550;9.926;2023-03-23T16:11:40;3.75;;;1.30;;
43823;SDS011;29470;53.550;9.926;2023-03-23T16:16:45;4.63;;;1.73;;
43823;SDS011;29470;53.550;9.926;2023-03-23T16:26:55;28.80;;;4.13;;
43823;SDS011;29470;53.550;9.926;2023-03-23T16:31:58;10.73;;;3.72;;
43823;SDS011;29470;53.550;9.926;2023-03-23T16:37:01;22.95;;;2.72;;
43823;SDS011;29470;53.550;9.926;2023-03-23T16:42:05;8.48;;;1.98;;
43823;SDS011;29470;53.550;9.926;2023-03-23T16:47:08;6.85;;;2.15;;
43823;SDS011;29470;53.550;9.926;2023-03-23T16:52:11;7.03;;;1.80;;
43823;SDS011;29470;53.550;9.926;2023-03-23T16:57:15;4.90;;;1.70;;
43823;SDS011;29470;53.550;9.926;2023-03-23T17:02:18;5.65;;;1.60;;
43823;SDS011;29470;53.550;9.926;2023-03-23T17:07:21;7.80;;;2.70;;
43823;SDS011;29470;53.550;9.926;2023-03-23T17:12:25;6.28;;;1.80;;
43823;SDS011;29470;53.550;9.926;2023-03-23T17:17:27;4.88;;;1.60;;
43823;SDS011;29470;53.550;9.926;2023-03-23T17:22:30;4.95;;;1.70;;
43823;SDS011;29470;53.550;9.926;2023-03-23T17:27:35;7.43;;;3.13;;
43823;SDS011;29470;53.550;9.926;2023-03-23T17:32:38;5.63;;;1.70;;
43823;SDS011;29470;53.550;9.926;2023-03-23T17:37:41;10.35;;;3.78;;
43823;SDS011;29470;53.550;9.926;2023-03-23T17:42:45;5.25;;;2.00;;
43823;SDS011;29470;53.550;9.926;2023-03-23T17:47:48;7.10;;;2.13;;
43823;SDS011;29470;53.550;9.926;2023-03-23T17:52:51;9.70;;;3.55;;
43823;SDS011;29470;53.550;9.926;2023-03-23T17:57:55;4.85;;;2.38;;
43823;SDS011;29470;53.550;9.926;2023-03-23T18:02:58;11.27;;;5.00;;
43823;SDS011;29470;53.550;9.926;2023-03-23T18:08:01;10.35;;;4.47;;
43823;SDS011;29470;53.550;9.926;2023-03-23T18:13:06;7.18;;;2.72;;
43823;SDS011;29470;53.550;9.926;2023-03-23T18:18:10;8.95;;;3.25;;
43823;SDS011;29470;53.550;9.926;2023-03-23T18:23:13;7.20;;;2.28;;
43823;SDS011;29470;53.550;9.926;2023-03-23T18:28:17;6.57;;;2.83;;
43823;SDS011;29470;53.550;9.926;2023-03-23T18:33:21;7.47;;;2.15;;
43823;SDS011;29470;53.550;9.926;2023-03-23T18:38:25;8.93;;;3.03;;
43823;SDS011;29470;53.550;9.926;2023-03-23T18:43:30;6.60;;;2.13;;
43823;SDS011;29470;53.550;9.926;2023-03-23T18:48:33;6.50;;;2.45;;
43823;SDS011;29470;53.550;9.926;2023-03-23T18:53:38;17.38;;;7.47;;
43823;SDS011;29470;53.550;9.926;2023-03-23T18:58:42;8.63;;;2.50;;
43823;SDS011;29470;53.550;9.926;2023-03-23T19:03:46;11.68;;;3.60;;
43823;SDS011;29470;53.550;9.926;2023-03-23T19:08:49;4.97;;;1.80;;
43823;SDS011;29470;53.550;9.926;2023-03-23T19:13:55;6.03;;;2.40;;
43823;SDS011;29470;53.550;9.926;2023-03-23T19:19:04;6.63;;;2.75;;
43823;SDS011;29470;53.550;9.926;2023-03-23T19:24:08;6.43;;;2.30;;
43823;SDS011;29470;53.550;9.926;2023-03-23T19:29:13;8.13;;;3.13;;
43823;SDS011;29470;53.550;9.926;2023-03-23T19:34:20;6.35;;;2.17;;
43823;SDS011;29470;53.550;9.926;2023-03-23T19:39:24;5.40;;;2.33;;
43823;SDS011;29470;53.550;9.926;2023-03-23T19:44:31;4.72;;;2.45;;
43823;SDS011;29470;53.550;9.926;2023-03-23T19:54:42;7.95;;;2.67;;
43823;SDS011;29470;53.550;9.926;2023-03-23T19:59:49;5.15;;;2.50;;
43823;SDS011;29470;53.550;9.926;2023-03-23T20:05:12;7.78;;;3.20;;
43823;SDS011;29470;53.550;9.926;2023-03-23T20:10:16;13.57;;;6.95;;
43823;SDS011;29470;53.550;9.926;2023-03-23T20:15:30;9.25;;;4.28;;
43823;SDS011;29470;53.550;9.926;2023-03-23T20:20:34;7.22;;;3.15;;
43823;SDS011;29470;53.550;9.926;2023-03-23T20:25:37;6.70;;;2.60;;
43823;SDS011;29470;53.550;9.926;2023-03-23T20:30:41;4.88;;;2.90;;
43823;SDS011;29470;53.550;9.926;2023-03-23T20:35:47;5.20;;;3.00;;
43823;SDS011;29470;53.550;9.926;2023-03-23T20:40:53;6.15;;;3.63;;
43823;SDS011;29470;53.550;9.926;2023-03-23T20:46:02;6.82;;;4.13;;
43823;SDS011;29470;53.550;9.926;2023-03-23T20:51:07;7.15;;;4.82;;
43823;SDS011;29470;53.550;9.926;2023-03-23T20:56:19;5.95;;;4.78;;
43823;SDS011;29470;53.550;9.926;2023-03-23T21:01:24;6.85;;;4.70;;
43823;SDS011;29470;53.550;9.926;2023-03-23T21:06:27;9.68;;;5.65;;
43823;SDS011;29470;53.550;9.926;2023-03-23T21:11:31;9.85;;;6.35;;
43823;SDS011;29470;53.550;9.926;2023-03-23T21:16:37;9.30;;;6.00;;
43823;SDS011;29470;53.550;9.926;2023-03-23T21:21:41;15.73;;;9.30;;
43823;SDS011;29470;53.550;9.926;2023-03-23T21:26:58;12.98;;;6.72;;
43823;SDS011;29470;53.550;9.926;2023-03-23T21:32:04;11.32;;;7.25;;
43823;SDS011;29470;53.550;9.926;2023-03-23T21:37:09;10.80;;;7.75;;
43823;SDS011;29470;53.550;9.926;2023-03-23T21:42:12;11.68;;;7.40;;
43823;SDS011;29470;53.550;9.926;2023-03-23T21:47:16;14.23;;;7.57;;
43823;SDS011;29470;53.550;9.926;2023-03-23T21:52:19;12.77;;;8.05;;
43823;SDS011;29470;53.550;9.926;2023-03-23T21:57:22;15.45;;;7.80;;
43823;SDS011;29470;53.550;9.926;2023-03-23T22:02:26;11.55;;;6.78;;
43823;SDS011;29470;53.550;9.926;2023-03-23T22:07:30;12.05;;;7.20;;
43823;SDS011;29470;53.550;9.926;2023-03-23T22:12:33;12.57;;;6.40;;
43823;SDS011;29470;53.550;9.926;2023-03-23T22:17:39;10.85;;;6.78;;
43823;SDS011;29470;53.550;9.926;2023-03-23T22:22:42;16.85;;;8.98;;
43823;SDS011;29470;53.550;9.926;2023-03-23T22:27:45;13.77;;;8.00;;
43823;SDS011;29470;53.550;9.926;2023-03-23T22:32:49;18.90;;;9.10;;
43823;SDS011;29470;53.550;9.926;2023-03-23T22:37:52;12.80;;;7.25;;
43823;SDS011;29470;53.550;9.926;2023-03-23T22:42:56;13.27;;;7.72;;
43823;SDS011;29470;53.550;9.926;2023-03-23T22:48:00;14.13;;;7.97;;
43823;SDS011;29470;53.550;9.926;2023-03-23T22:53:05;11.77;;;6.82;;
43823;SDS011;29470;53.550;9.926;2023-03-23T22:58:09;13.75;;;7.80;;
43823;SDS011;29470;53.550;9.926;2023-03-23T23:03:13;12.15;;;7.35;;
43823;SDS011;29470;53.550;9.926;2023-03-23T23:08:17;11.95;;;6.55;;
43823;SDS011;29470;53.550;9.926;2023-03-23T23:13:20;12.93;;;6.38;;
43823;SDS011;29470;53.550;9.926;2023-03-23T23:18:25;12.35;;;7.07;;
43823;SDS011;29470;53.550;9.926;2023-03-23T23:23:29;7.97;;;5.20;;
43823;SDS011;29470;53.550;9.926;2023-03-23T23:28:32;10.23;;;5.70;;
43823;SDS011;29470;53.550;9.926;2023-03-23T23:33:37;8.57;;;5.43;;
43823;SDS011;29470;53.550;9.926;2023-03-23T23:38:40;12.93;;;6.72;;
43823;SDS011;29470;53.550;9.926;2023-03-23T23:43:43;12.15;;;5.97;;
43823;SDS011;29470;53.550;9.926;2023-03-23T23:48:47;8.52;;;4.65;;
43823;SDS011;29470;53.550;9.926;2023-03-23T23:53:50;7.75;;;3.75;;
43823;SDS011;29470;53.550;9.926;2023-03-23T23:58:54;6.90;;;3.20;;
